Time;durP1;ratioP1;P1;durP2;ratioP2;P2;SDS_P1;SDS_P2;PMS_P1;PMS_P2;Temp;Humidity;BMP_temperature;BMP_pressure;BME280_temperature;BME280_humidity;BME280_pressure;Samples;Min_cycle;Max_cycle;Signal;HPM_P1;HPM_P2
2023/04/07 00:00:19;;;;;;;31.30;13.32;;;;;;;;;;4948235;29;20105;-80
2023/04/07 00:02:47;;;;;;;27.45;12.90;;;;;;;;;;4950867;28;20051;-79
2023/04/07 00:05:16;;;;;;;32.53;12.82;;;;;;;;;;4952327;28;20071;-79
2023/04/07 00:07:42;;;;;;;24.98;12.55;;;;;;;;;;4952528;28;20058;-79
2023/04/07 00:10:22;;;;;;;33.28;13.10;;;;;;;;;;4953231;28;20130;-79
2023/04/07 00:12:48;;;;;;;28.88;12.43;;;;;;;;;;4951073;28;20040;-78
2023/04/07 00:15:15;;;;;;;25.85;12.05;;;;;;;;;;4949102;28;20047;-78
2023/04/07 00:17:42;;;;;;;29.67;12.27;;;;;;;;;;4952946;28;20066;-79
2023/04/07 00:20:09;;;;;;;23.13;12.10;;;;;;;;;;4950351;28;20385;-78
2023/04/07 00:22:36;;;;;;;27.73;12.45;;;;;;;;;;4950405;28;20103;-79
2023/04/07 00:25:02;;;;;;;25.33;12.40;;;;;;;;;;4952222;28;20134;-78
2023/04/07 00:27:29;;;;;;;27.85;12.43;;;;;;;;;;4952935;28;20059;-77
2023/04/07 00:29:56;;;;;;;23.55;11.48;;;;;;;;;;4954045;28;20492;-79
2023/04/07 00:32:22;;;;;;;26.88;12.02;;;;;;;;;;4957088;28;20041;-79
2023/04/07 00:34:49;;;;;;;29.98;13.00;;;;;;;;;;4955237;28;20058;-78
2023/04/07 00:37:15;;;;;;;26.63;11.93;;;;;;;;;;4956651;28;20039;-79
2023/04/07 00:39:42;;;;;;;25.00;12.27;;;;;;;;;;4954964;28;20080;-79
2023/04/07 00:42:13;;;;;;;25.75;11.10;;;;;;;;;;4958758;28;20058;-79
2023/04/07 00:44:39;;;;;;;19.67;10.73;;;;;;;;;;4955587;28;20078;-79
2023/04/07 00:47:08;;;;;;;23.55;11.00;;;;;;;;;;4955683;28;20058;-79
2023/04/07 00:49:36;;;;;;;20.70;10.77;;;;;;;;;;4955237;28;20047;-80
2023/04/07 00:52:05;;;;;;;23.90;11.60;;;;;;;;;;4957081;28;20102;-79
2023/04/07 00:54:31;;;;;;;20.85;11.40;;;;;;;;;;4954830;28;20071;-78
2023/04/07 00:56:58;;;;;;;21.33;10.90;;;;;;;;;;4954980;29;20043;-79
2023/04/07 00:59:24;;;;;;;23.80;11.38;;;;;;;;;;4956928;28;20054;-78
2023/04/07 01:01:55;;;;;;;22.83;11.40;;;;;;;;;;4954681;28;20051;-78
2023/04/07 01:04:32;;;;;;;19.95;11.27;;;;;;;;;;4953664;28;20053;-77
2023/04/07 01:07:08;;;;;;;24.13;11.50;;;;;;;;;;4960363;29;20059;-77
2023/04/07 01:09:45;;;;;;;21.75;10.68;;;;;;;;;;4953312;28;20122;-77
2023/04/07 01:12:38;;;;;;;17.80;10.15;;;;;;;;;;4952144;28;20098;-79
2023/04/07 01:15:09;;;;;;;24.25;11.07;;;;;;;;;;4930896;28;20747;-80
2023/04/07 01:17:42;;;;;;;20.83;10.13;;;;;;;;;;4953750;28;20051;-80
2023/04/07 01:20:11;;;;;;;22.92;10.40;;;;;;;;;;4954801;28;20074;-80
2023/04/07 01:23:04;;;;;;;21.33;10.85;;;;;;;;;;4952843;28;20043;-80
2023/04/07 01:25:31;;;;;;;22.77;10.40;;;;;;;;;;4933497;29;20048;-79
2023/04/07 01:28:07;;;;;;;19.55;10.77;;;;;;;;;;4934526;29;20555;-80
2023/04/07 01:30:36;;;;;;;20.98;10.60;;;;;;;;;;4933018;29;20044;-79
2023/04/07 01:33:05;;;;;;;19.98;10.25;;;;;;;;;;4935145;29;20127;-80
2023/04/07 01:35:33;;;;;;;19.88;10.13;;;;;;;;;;4934152;29;20040;-80
2023/04/07 01:38:01;;;;;;;19.13;11.10;;;;;;;;;;4936637;29;20503;-79
2023/04/07 01:40:28;;;;;;;23.08;10.85;;;;;;;;;;4933905;29;20048;-80
2023/04/07 01:42:56;;;;;;;18.90;10.43;;;;;;;;;;4938141;29;20067;-79
2023/04/07 01:45:22;;;;;;;20.92;11.13;;;;;;;;;;4934236;29;20052;-80
2023/04/07 01:47:50;;;;;;;21.33;11.63;;;;;;;;;;4934675;29;20054;-78
2023/04/07 01:50:16;;;;;;;19.67;10.20;;;;;;;;;;4934160;29;20059;-80
2023/04/07 01:52:43;;;;;;;19.33;10.05;;;;;;;;;;4941155;28;20043;-78
2023/04/07 01:55:10;;;;;;;21.20;10.45;;;;;;;;;;4951948;28;20399;-80
2023/04/07 01:57:43;;;;;;;18.52;9.95;;;;;;;;;;4951674;28;20043;-79
2023/04/07 02:00:14;;;;;;;17.83;9.90;;;;;;;;;;4951685;28;20039;-79
2023/04/07 02:02:42;;;;;;;18.50;10.75;;;;;;;;;;4953468;28;20059;-80
2023/04/07 02:05:12;;;;;;;19.65;10.73;;;;;;;;;;4945734;28;20432;-79
2023/04/07 02:07:52;;;;;;;21.38;9.98;;;;;;;;;;4952678;29;20043;-79
2023/04/07 02:10:21;;;;;;;18.25;10.02;;;;;;;;;;4952896;28;20047;-79
2023/04/07 02:12:48;;;;;;;20.65;11.02;;;;;;;;;;4951249;28;20440;-79
2023/04/07 02:15:17;;;;;;;21.88;11.32;;;;;;;;;;4950766;28;20126;-80
2023/04/07 02:17:50;;;;;;;19.73;11.02;;;;;;;;;;4951136;28;20156;-78
2023/04/07 02:20:18;;;;;;;26.70;11.48;;;;;;;;;;4949910;28;20480;-78
2023/04/07 02:22:45;;;;;;;21.27;10.90;;;;;;;;;;4949447;28;20199;-77
2023/04/07 02:25:21;;;;;;;21.95;11.02;;;;;;;;;;4949684;29;20069;-78
2023/04/07 02:27:48;;;;;;;20.83;11.27;;;;;;;;;;4949323;28;20118;-80
2023/04/07 02:30:14;;;;;;;24.33;11.43;;;;;;;;;;4950541;28;20098;-78
2023/04/07 02:32:43;;;;;;;18.55;10.55;;;;;;;;;;4950130;29;20055;-80
2023/04/07 02:35:10;;;;;;;23.63;11.73;;;;;;;;;;4949738;28;20051;-78
2023/04/07 02:37:37;;;;;;;22.08;11.38;;;;;;;;;;4950691;28;20035;-76
2023/04/07 02:40:04;;;;;;;21.90;11.13;;;;;;;;;;4948084;28;20484;-77
2023/04/07 02:42:31;;;;;;;25.95;11.45;;;;;;;;;;4953069;28;20039;-79
2023/04/07 02:44:58;;;;;;;20.55;11.23;;;;;;;;;;4949214;28;20085;-79
2023/04/07 02:47:24;;;;;;;27.58;12.75;;;;;;;;;;4931789;29;20044;-78
2023/04/07 02:49:51;;;;;;;21.55;11.10;;;;;;;;;;4931352;29;20055;-78
2023/04/07 02:52:17;;;;;;;19.65;10.95;;;;;;;;;;4939214;28;20051;-76
2023/04/07 02:54:44;;;;;;;19.63;10.60;;;;;;;;;;4951026;29;20054;-78
2023/04/07 02:57:12;;;;;;;19.20;10.38;;;;;;;;;;4935280;29;20138;-79
2023/04/07 02:59:39;;;;;;;21.42;10.02;;;;;;;;;;4950588;28;20047;-77
2023/04/07 03:02:09;;;;;;;22.13;10.73;;;;;;;;;;4935615;28;20116;-78
2023/04/07 03:04:36;;;;;;;17.58;9.85;;;;;;;;;;4950282;28;20469;-79
2023/04/07 03:07:03;;;;;;;18.23;10.60;;;;;;;;;;4951823;28;20427;-78
2023/04/07 03:09:31;;;;;;;23.67;10.70;;;;;;;;;;4950578;28;20546;-79
2023/04/07 03:11:57;;;;;;;20.00;10.70;;;;;;;;;;4953147;28;20660;-77
2023/04/07 03:14:29;;;;;;;20.48;10.60;;;;;;;;;;4953053;28;20046;-80
2023/04/07 03:16:56;;;;;;;21.50;10.32;;;;;;;;;;4951195;28;20074;-79
2023/04/07 03:19:23;;;;;;;19.38;10.52;;;;;;;;;;4949660;28;20050;-79
2023/04/07 03:21:51;;;;;;;19.20;10.75;;;;;;;;;;4951200;28;20077;-79
2023/04/07 03:24:18;;;;;;;22.20;11.13;;;;;;;;;;4950917;29;20058;-78
2023/04/07 03:26:45;;;;;;;20.88;10.45;;;;;;;;;;4949594;29;20654;-78
2023/04/07 03:29:39;;;;;;;22.33;9.88;;;;;;;;;;4948406;28;20404;-79
2023/04/07 03:32:09;;;;;;;21.33;11.02;;;;;;;;;;4950948;28;20106;-78
2023/04/07 03:34:36;;;;;;;24.48;11.32;;;;;;;;;;4954636;28;20067;-78
2023/04/07 03:37:03;;;;;;;21.23;11.48;;;;;;;;;;4960829;28;20054;-78
2023/04/07 03:39:32;;;;;;;20.42;11.30;;;;;;;;;;4951099;28;20078;-78
2023/04/07 03:42:00;;;;;;;22.30;11.48;;;;;;;;;;4949825;28;20067;-79
2023/04/07 03:44:29;;;;;;;20.58;10.95;;;;;;;;;;4951627;28;20503;-78
2023/04/07 03:46:56;;;;;;;21.42;10.80;;;;;;;;;;4949615;28;20169;-80
2023/04/07 03:49:25;;;;;;;22.58;11.85;;;;;;;;;;4949080;28;20043;-80
2023/04/07 03:51:53;;;;;;;21.85;11.63;;;;;;;;;;4949431;28;20457;-77
2023/04/07 03:54:20;;;;;;;22.20;11.30;;;;;;;;;;4950482;29;20058;-78
2023/04/07 03:56:47;;;;;;;22.77;12.07;;;;;;;;;;4951767;29;20059;-80
2023/04/07 03:59:18;;;;;;;26.77;12.00;;;;;;;;;;4945579;28;20505;-77
2023/04/07 04:01:59;;;;;;;20.75;11.52;;;;;;;;;;4952730;28;20055;-78
2023/04/07 04:04:26;;;;;;;19.88;11.25;;;;;;;;;;4964354;28;20090;-77
2023/04/07 04:06:53;;;;;;;22.08;11.52;;;;;;;;;;4972524;28;20047;-78
2023/04/07 04:09:38;;;;;;;21.35;11.98;;;;;;;;;;4967823;28;20085;-78
2023/04/07 04:12:05;;;;;;;25.92;11.88;;;;;;;;;;4956165;28;20070;-77
2023/04/07 04:14:37;;;;;;;25.08;10.98;;;;;;;;;;4954645;28;20103;-76
2023/04/07 04:17:07;;;;;;;22.50;12.10;;;;;;;;;;4953794;28;20074;-77
2023/04/07 04:19:41;;;;;;;22.95;12.10;;;;;;;;;;4952312;28;20055;-78
2023/04/07 04:22:15;;;;;;;23.40;12.15;;;;;;;;;;4945224;28;20102;-78
2023/04/07 04:24:49;;;;;;;22.02;11.82;;;;;;;;;;4953110;29;20491;-78
2023/04/07 04:27:16;;;;;;;20.83;11.13;;;;;;;;;;4956010;28;20059;-77
2023/04/07 04:29:46;;;;;;;23.48;12.50;;;;;;;;;;4952925;28;20094;-79
2023/04/07 04:32:16;;;;;;;21.00;11.40;;;;;;;;;;4955989;28;20043;-78
2023/04/07 04:34:43;;;;;;;25.15;12.77;;;;;;;;;;4955475;28;20071;-79
2023/04/07 04:37:11;;;;;;;23.10;11.90;;;;;;;;;;4956793;28;20579;-78
2023/04/07 04:39:41;;;;;;;23.45;11.85;;;;;;;;;;4954618;28;20054;-78
2023/04/07 04:42:10;;;;;;;24.85;12.75;;;;;;;;;;4954551;28;20051;-78
2023/04/07 04:44:38;;;;;;;22.48;11.82;;;;;;;;;;4955110;28;20044;-78
2023/04/07 04:47:05;;;;;;;25.60;12.05;;;;;;;;;;4958862;28;20054;-78
2023/04/07 04:49:32;;;;;;;22.98;11.70;;;;;;;;;;4941930;28;20054;-78
2023/04/07 04:52:01;;;;;;;22.50;11.45;;;;;;;;;;4957894;28;20117;-78
2023/04/07 04:54:34;;;;;;;24.80;12.23;;;;;;;;;;4959388;28;20118;-80
2023/04/07 04:57:00;;;;;;;23.02;11.85;;;;;;;;;;4940578;28;20106;-78
2023/04/07 04:59:27;;;;;;;26.00;13.07;;;;;;;;;;4959197;28;20424;-78
2023/04/07 05:01:58;;;;;;;24.60;12.88;;;;;;;;;;4959239;28;20053;-78
2023/04/07 05:04:27;;;;;;;25.05;12.75;;;;;;;;;;4955488;28;20127;-79
2023/04/07 05:07:05;;;;;;;23.98;11.73;;;;;;;;;;4957326;28;20039;-78
2023/04/07 05:09:31;;;;;;;29.38;13.85;;;;;;;;;;4955110;28;20051;-78
2023/04/07 05:11:58;;;;;;;39.28;17.83;;;;;;;;;;4956851;28;20113;-78
2023/04/07 05:14:26;;;;;;;58.15;24.50;;;;;;;;;;4958336;28;20051;-78
2023/04/07 05:17:01;;;;;;;50.13;22.13;;;;;;;;;;4954326;28;20495;-79
2023/04/07 05:19:28;;;;;;;47.80;19.33;;;;;;;;;;4962673;28;20174;-78
2023/04/07 05:22:02;;;;;;;41.17;19.05;;;;;;;;;;4963950;28;20117;-79
2023/04/07 05:24:32;;;;;;;38.92;18.63;;;;;;;;;;4964989;28;20055;-78
2023/04/07 05:27:02;;;;;;;40.25;18.77;;;;;;;;;;4968345;28;20145;-79
2023/04/07 05:29:30;;;;;;;36.55;18.13;;;;;;;;;;4969776;28;20051;-77
2023/04/07 05:31:57;;;;;;;38.45;17.98;;;;;;;;;;4971086;28;20102;-77
2023/04/07 05:34:25;;;;;;;41.95;18.33;;;;;;;;;;4973616;28;20043;-78
2023/04/07 05:36:55;;;;;;;27.08;14.50;;;;;;;;;;4977884;28;20035;-77
2023/04/07 05:39:21;;;;;;;28.52;13.55;;;;;;;;;;4971638;28;20046;-77
2023/04/07 05:41:51;;;;;;;22.90;11.80;;;;;;;;;;4963200;28;20119;-79
2023/04/07 05:44:22;;;;;;;23.60;12.93;;;;;;;;;;4968582;28;20061;-78
2023/04/07 05:46:49;;;;;;;24.95;12.70;;;;;;;;;;4973641;28;20078;-77
2023/04/07 05:49:18;;;;;;;25.67;11.90;;;;;;;;;;4970415;28;20039;-78
2023/04/07 05:51:51;;;;;;;25.08;11.95;;;;;;;;;;4980276;28;20066;-77
2023/04/07 05:54:18;;;;;;;22.85;12.02;;;;;;;;;;4969201;28;20054;-77
2023/04/07 05:56:45;;;;;;;24.95;12.23;;;;;;;;;;4967818;28;20236;-77
2023/04/07 05:59:12;;;;;;;26.67;12.52;;;;;;;;;;4967900;28;20071;-77
2023/04/07 06:01:38;;;;;;;20.95;11.38;;;;;;;;;;4964779;28;20043;-78
2023/04/07 06:04:07;;;;;;;18.08;10.32;;;;;;;;;;4960786;28;20054;-78
2023/04/07 06:06:34;;;;;;;20.40;10.50;;;;;;;;;;4970774;28;20062;-78
2023/04/07 06:09:01;;;;;;;22.70;10.15;;;;;;;;;;4968203;28;20039;-78
2023/04/07 06:11:27;;;;;;;15.90;9.57;;;;;;;;;;4967901;28;20039;-79
2023/04/07 06:13:54;;;;;;;21.70;10.05;;;;;;;;;;4954860;28;20058;-77
2023/04/07 06:16:22;;;;;;;23.60;11.25;;;;;;;;;;4963931;28;20319;-79
2023/04/07 06:18:50;;;;;;;24.33;11.77;;;;;;;;;;4963078;28;20051;-77
2023/04/07 06:21:17;;;;;;;23.15;12.10;;;;;;;;;;4972005;28;20058;-78
2023/04/07 06:23:44;;;;;;;25.40;11.70;;;;;;;;;;4973710;28;20046;-79
2023/04/07 06:26:13;;;;;;;18.77;10.80;;;;;;;;;;4972134;28;20055;-79
2023/04/07 06:28:46;;;;;;;19.85;11.13;;;;;;;;;;4968205;28;20098;-79
2023/04/07 06:31:13;;;;;;;21.33;9.82;;;;;;;;;;4949984;29;20072;-78
2023/04/07 06:33:40;;;;;;;18.85;9.95;;;;;;;;;;4968536;28;20067;-79
2023/04/07 06:36:08;;;;;;;18.58;8.98;;;;;;;;;;4949415;29;20126;-79
2023/04/07 06:38:34;;;;;;;16.55;9.13;;;;;;;;;;4945148;28;20051;-80
2023/04/07 06:41:01;;;;;;;16.85;9.15;;;;;;;;;;4946352;28;20756;-79
2023/04/07 06:43:28;;;;;;;17.77;9.00;;;;;;;;;;4946133;28;20070;-77
2023/04/07 06:46:00;;;;;;;15.00;8.23;;;;;;;;;;4946849;28;20053;-79
2023/04/07 06:48:26;;;;;;;14.38;8.13;;;;;;;;;;4948642;28;20070;-80
2023/04/07 06:50:53;;;;;;;14.65;7.90;;;;;;;;;;4950265;28;20632;-80
2023/04/07 06:53:20;;;;;;;15.77;8.18;;;;;;;;;;4950793;28;20135;-79
2023/04/07 06:55:46;;;;;;;12.20;7.30;;;;;;;;;;4945685;28;20055;-80
2023/04/07 06:58:13;;;;;;;15.27;7.93;;;;;;;;;;4949092;28;20070;-79
2023/04/07 07:00:39;;;;;;;16.02;7.30;;;;;;;;;;4941980;28;20469;-79
2023/04/07 07:03:06;;;;;;;14.90;8.18;;;;;;;;;;4947827;28;20137;-79
2023/04/07 07:05:33;;;;;;;18.38;8.38;;;;;;;;;;4949276;28;20062;-80
2023/04/07 07:07:59;;;;;;;15.35;8.02;;;;;;;;;;4952006;28;20047;-79
2023/04/07 07:10:26;;;;;;;16.45;8.82;;;;;;;;;;4953141;28;20059;-79
2023/04/07 07:12:52;;;;;;;14.55;8.48;;;;;;;;;;4948876;28;20055;-79
2023/04/07 07:15:19;;;;;;;19.50;8.20;;;;;;;;;;4946918;28;20051;-79
2023/04/07 07:17:46;;;;;;;13.18;7.63;;;;;;;;;;4948068;28;20047;-79
2023/04/07 07:20:12;;;;;;;15.32;8.50;;;;;;;;;;4947179;28;20071;-78
2023/04/07 07:22:40;;;;;;;14.95;8.80;;;;;;;;;;4944920;28;20051;-79
2023/04/07 07:25:06;;;;;;;18.88;9.43;;;;;;;;;;4946995;28;20050;-80
2023/04/07 07:27:33;;;;;;;22.70;9.13;;;;;;;;;;4946281;28;20106;-79
2023/04/07 07:30:00;;;;;;;18.52;8.93;;;;;;;;;;4947119;28;20135;-78
2023/04/07 07:32:29;;;;;;;16.92;8.68;;;;;;;;;;4947464;28;20051;-78
2023/04/07 07:34:55;;;;;;;16.90;8.98;;;;;;;;;;4942163;28;20055;-79
2023/04/07 07:37:22;;;;;;;24.27;11.88;;;;;;;;;;4943711;28;20047;-77
2023/04/07 07:39:49;;;;;;;14.93;9.00;;;;;;;;;;4947346;28;20051;-75
2023/04/07 07:42:15;;;;;;;16.85;9.15;;;;;;;;;;4948344;28;20079;-78
2023/04/07 07:44:42;;;;;;;15.13;8.93;;;;;;;;;;4948600;29;20051;-78
2023/04/07 07:47:08;;;;;;;16.08;8.50;;;;;;;;;;4949113;28;20214;-78
2023/04/07 07:49:35;;;;;;;14.43;8.07;;;;;;;;;;4949511;28;20067;-79
2023/04/07 07:52:02;;;;;;;17.60;8.05;;;;;;;;;;4948751;28;20066;-80
2023/04/07 07:54:29;;;;;;;15.45;8.68;;;;;;;;;;4939058;28;20067;-79
2023/04/07 07:56:56;;;;;;;20.15;8.90;;;;;;;;;;4945141;28;20086;-79
2023/04/07 07:59:22;;;;;;;14.90;7.85;;;;;;;;;;4947630;28;20126;-78
2023/04/07 08:01:49;;;;;;;15.35;8.15;;;;;;;;;;4949930;28;20051;-79
2023/04/07 08:04:15;;;;;;;18.05;8.68;;;;;;;;;;4950782;28;20051;-79
2023/04/07 08:06:42;;;;;;;18.55;8.38;;;;;;;;;;4948504;28;20055;-79
2023/04/07 08:09:09;;;;;;;13.32;6.78;;;;;;;;;;4946843;28;20059;-78
2023/04/07 08:11:35;;;;;;;13.55;6.82;;;;;;;;;;4955889;28;20047;-79
2023/04/07 08:14:02;;;;;;;14.10;6.25;;;;;;;;;;4947486;28;20754;-79
2023/04/07 08:16:29;;;;;;;12.73;6.32;;;;;;;;;;4965868;28;20638;-79
2023/04/07 08:18:56;;;;;;;14.80;6.45;;;;;;;;;;4949259;28;20059;-79
2023/04/07 08:21:22;;;;;;;15.60;5.85;;;;;;;;;;4951577;28;20145;-80
2023/04/07 08:23:49;;;;;;;11.60;5.90;;;;;;;;;;4945814;28;20078;-79
2023/04/07 08:26:16;;;;;;;12.90;5.85;;;;;;;;;;4962784;28;20066;-78
2023/04/07 08:28:42;;;;;;;13.55;6.10;;;;;;;;;;4954993;28;20459;-79
2023/04/07 08:31:09;;;;;;;10.25;5.40;;;;;;;;;;4947675;28;20101;-77
2023/04/07 08:33:36;;;;;;;11.82;6.05;;;;;;;;;;4949232;28;20523;-79
2023/04/07 08:36:02;;;;;;;11.13;6.22;;;;;;;;;;4949575;28;20078;-79
2023/04/07 08:38:30;;;;;;;12.15;5.93;;;;;;;;;;4947255;28;20062;-79
2023/04/07 08:41:01;;;;;;;11.35;6.15;;;;;;;;;;4949302;28;20059;-81
2023/04/07 08:43:32;;;;;;;12.25;5.65;;;;;;;;;;4938301;29;20520;-80
2023/04/07 08:45:59;;;;;;;10.65;5.47;;;;;;;;;;4930122;29;20473;-79
2023/04/07 08:48:29;;;;;;;9.98;5.47;;;;;;;;;;4942413;28;20047;-77
2023/04/07 08:50:56;;;;;;;12.00;5.43;;;;;;;;;;4947777;28;20579;-79
2023/04/07 08:53:26;;;;;;;11.65;5.53;;;;;;;;;;4949706;28;20051;-79
2023/04/07 08:55:56;;;;;;;10.07;5.28;;;;;;;;;;4938321;28;20432;-77
2023/04/07 08:58:23;;;;;;;8.27;4.53;;;;;;;;;;4949273;28;20399;-79
2023/04/07 09:00:50;;;;;;;9.88;5.05;;;;;;;;;;4946498;29;20055;-80
2023/04/07 09:03:17;;;;;;;11.15;5.50;;;;;;;;;;4949113;28;20054;-78
2023/04/07 09:05:45;;;;;;;9.55;4.93;;;;;;;;;;4950673;28;20079;-79
2023/04/07 09:08:11;;;;;;;10.45;5.20;;;;;;;;;;4954357;28;20066;-79
2023/04/07 09:10:38;;;;;;;9.98;5.05;;;;;;;;;;4972314;28;20134;-80
2023/04/07 09:13:05;;;;;;;8.55;4.45;;;;;;;;;;4959846;28;20677;-79
2023/04/07 09:15:32;;;;;;;12.88;4.97;;;;;;;;;;4956564;28;20046;-80
2023/04/07 09:17:58;;;;;;;10.90;5.45;;;;;;;;;;4956615;28;20676;-79
2023/04/07 09:20:25;;;;;;;11.40;5.50;;;;;;;;;;4950872;28;20047;-79
2023/04/07 09:22:52;;;;;;;9.00;4.70;;;;;;;;;;4931970;29;20059;-81
2023/04/07 09:25:25;;;;;;;10.20;4.97;;;;;;;;;;4944161;29;20054;-79
2023/04/07 09:27:58;;;;;;;11.48;5.30;;;;;;;;;;4939369;29;20078;-80
2023/04/07 09:30:26;;;;;;;12.10;5.30;;;;;;;;;;4951729;28;20054;-80
2023/04/07 09:32:52;;;;;;;11.07;5.38;;;;;;;;;;4954622;28;20668;-79
2023/04/07 09:35:21;;;;;;;11.50;6.07;;;;;;;;;;4953968;28;20086;-79
2023/04/07 09:38:02;;;;;;;9.13;5.55;;;;;;;;;;4942948;28;20437;-80
2023/04/07 09:40:29;;;;;;;9.57;4.90;;;;;;;;;;4956997;28;20047;-79
2023/04/07 09:42:57;;;;;;;11.35;5.55;;;;;;;;;;4955886;28;20065;-79
2023/04/07 09:45:25;;;;;;;7.68;5.07;;;;;;;;;;4957264;28;20075;-77
2023/04/07 09:48:04;;;;;;;8.85;4.60;;;;;;;;;;4947488;28;20079;-77
2023/04/07 09:50:34;;;;;;;8.77;5.22;;;;;;;;;;4944135;28;20066;-79
2023/04/07 09:53:02;;;;;;;8.00;5.05;;;;;;;;;;4944914;28;20051;-79
2023/04/07 09:55:29;;;;;;;10.50;4.82;;;;;;;;;;4944449;28;20137;-78
2023/04/07 09:57:55;;;;;;;11.20;5.22;;;;;;;;;;4943311;28;20137;-79
2023/04/07 10:00:22;;;;;;;12.13;5.45;;;;;;;;;;4942526;28;20047;-79
2023/04/07 10:02:50;;;;;;;12.38;5.32;;;;;;;;;;4941082;28;20047;-77
2023/04/07 10:05:16;;;;;;;11.02;5.38;;;;;;;;;;4950486;28;20133;-80
2023/04/07 10:07:43;;;;;;;9.73;5.05;;;;;;;;;;4933268;28;20134;-79
2023/04/07 10:10:10;;;;;;;10.98;5.78;;;;;;;;;;4953278;28;20062;-80
2023/04/07 10:12:37;;;;;;;11.45;6.00;;;;;;;;;;4946991;28;20063;-80
2023/04/07 10:15:04;;;;;;;10.88;6.07;;;;;;;;;;4947871;28;20051;-79
2023/04/07 10:17:32;;;;;;;10.50;6.07;;;;;;;;;;4949845;28;20043;-81
2023/04/07 10:19:59;;;;;;;9.43;5.25;;;;;;;;;;4956636;28;20081;-79
2023/04/07 10:22:27;;;;;;;10.48;5.32;;;;;;;;;;4954124;28;20035;-80
2023/04/07 10:24:59;;;;;;;11.57;5.85;;;;;;;;;;4950644;28;20385;-79
2023/04/07 10:27:30;;;;;;;13.57;5.72;;;;;;;;;;4949401;28;20051;-80
2023/04/07 10:29:57;;;;;;;11.25;5.35;;;;;;;;;;4949643;28;20039;-80
2023/04/07 10:32:24;;;;;;;9.43;5.45;;;;;;;;;;4946705;28;20074;-79
2023/04/07 10:34:53;;;;;;;8.85;5.25;;;;;;;;;;4945464;28;20054;-79
2023/04/07 10:37:21;;;;;;;10.57;5.35;;;;;;;;;;4947334;28;20066;-79
2023/04/07 10:39:48;;;;;;;8.35;4.75;;;;;;;;;;4947847;28;20139;-79
2023/04/07 10:42:34;;;;;;;10.57;5.15;;;;;;;;;;4947849;28;20170;-81
2023/04/07 10:45:01;;;;;;;11.30;5.70;;;;;;;;;;4948203;28;20057;-79
2023/04/07 10:47:29;;;;;;;10.68;6.13;;;;;;;;;;4955522;28;20043;-78
2023/04/07 10:50:13;;;;;;;11.13;5.60;;;;;;;;;;4957573;28;20047;-80
2023/04/07 10:52:40;;;;;;;10.38;5.25;;;;;;;;;;4948754;28;20118;-79
2023/04/07 10:55:25;;;;;;;11.48;5.22;;;;;;;;;;4950816;28;20248;-80
2023/04/07 10:58:11;;;;;;;9.07;5.72;;;;;;;;;;4966410;28;20042;-78
2023/04/07 11:00:38;;;;;;;12.10;5.80;;;;;;;;;;4953288;28;20043;-81
2023/04/07 11:03:14;;;;;;;11.15;5.70;;;;;;;;;;4947605;28;20519;-81
2023/04/07 11:05:41;;;;;;;10.50;5.68;;;;;;;;;;4949302;28;20066;-80
2023/04/07 11:08:07;;;;;;;10.35;5.57;;;;;;;;;;4948137;28;20046;-80
2023/04/07 11:10:34;;;;;;;11.23;6.43;;;;;;;;;;4947122;28;20062;-81
2023/04/07 11:13:05;;;;;;;11.13;6.13;;;;;;;;;;4947331;28;20051;-80
2023/04/07 11:15:33;;;;;;;11.98;5.93;;;;;;;;;;4947335;28;20043;-78
2023/04/07 11:18:06;;;;;;;11.63;6.57;;;;;;;;;;4941316;28;20050;-80
2023/04/07 11:20:43;;;;;;;8.48;5.88;;;;;;;;;;4939953;28;20138;-80
2023/04/07 11:23:12;;;;;;;14.90;6.18;;;;;;;;;;4947937;28;20053;-80
2023/04/07 11:25:40;;;;;;;11.55;6.25;;;;;;;;;;4945836;29;20043;-79
2023/04/07 11:28:08;;;;;;;13.45;7.03;;;;;;;;;;4948827;28;20107;-80
2023/04/07 11:30:35;;;;;;;13.73;6.32;;;;;;;;;;4949096;28;20062;-80
2023/04/07 11:33:02;;;;;;;12.55;7.10;;;;;;;;;;4950006;28;20049;-81
2023/04/07 11:35:28;;;;;;;12.75;7.13;;;;;;;;;;4947446;28;20106;-81
2023/04/07 11:37:58;;;;;;;12.60;6.68;;;;;;;;;;4954627;28;20047;-78
2023/04/07 11:40:36;;;;;;;13.23;6.28;;;;;;;;;;4971508;28;20051;-78
2023/04/07 11:43:14;;;;;;;11.43;6.53;;;;;;;;;;4972843;28;20112;-77
2023/04/07 11:45:41;;;;;;;13.13;6.80;;;;;;;;;;4955904;28;20059;-80
2023/04/07 11:48:26;;;;;;;11.70;6.45;;;;;;;;;;4947127;29;20129;-79
2023/04/07 11:50:53;;;;;;;13.15;7.05;;;;;;;;;;4947750;28;20043;-80
2023/04/07 11:53:26;;;;;;;12.80;6.22;;;;;;;;;;4948735;28;20035;-80
2023/04/07 11:56:19;;;;;;;10.65;5.72;;;;;;;;;;4947959;28;20051;-79
2023/04/07 11:58:49;;;;;;;11.20;6.85;;;;;;;;;;4943245;28;20093;-80
2023/04/07 12:01:15;;;;;;;10.77;6.05;;;;;;;;;;4949270;28;20389;-79
2023/04/07 12:04:01;;;;;;;12.63;6.63;;;;;;;;;;4945306;29;20059;-78
2023/04/07 12:06:32;;;;;;;14.20;6.30;;;;;;;;;;4949104;28;20058;-80
2023/04/07 12:08:58;;;;;;;12.82;6.28;;;;;;;;;;4946222;28;20054;-80
2023/04/07 12:11:25;;;;;;;15.32;6.72;;;;;;;;;;4948646;28;20047;-80
2023/04/07 12:13:52;;;;;;;11.73;6.55;;;;;;;;;;4950700;28;20055;-80
2023/04/07 12:16:21;;;;;;;13.90;6.53;;;;;;;;;;4946873;28;20626;-79
2023/04/07 12:18:50;;;;;;;10.85;5.97;;;;;;;;;;4948987;28;20592;-79
2023/04/07 12:21:17;;;;;;;14.85;7.32;;;;;;;;;;4950647;28;20105;-79
2023/04/07 12:23:44;;;;;;;11.65;6.50;;;;;;;;;;4948153;28;20512;-80
2023/04/07 12:26:12;;;;;;;12.82;6.97;;;;;;;;;;4950073;29;20058;-79
2023/04/07 12:28:38;;;;;;;16.15;7.00;;;;;;;;;;4948935;28;20055;-79
2023/04/07 12:31:05;;;;;;;14.15;6.90;;;;;;;;;;4949989;28;20471;-80
2023/04/07 12:33:31;;;;;;;13.45;7.20;;;;;;;;;;4951098;28;20051;-78
2023/04/07 12:35:58;;;;;;;11.40;6.60;;;;;;;;;;4947860;28;20047;-79
2023/04/07 12:38:24;;;;;;;13.45;7.05;;;;;;;;;;4950452;28;20044;-80
2023/04/07 12:40:51;;;;;;;11.43;6.53;;;;;;;;;;4949241;28;20043;-79
2023/04/07 12:43:18;;;;;;;11.48;6.57;;;;;;;;;;4949027;28;20039;-80
2023/04/07 12:45:45;;;;;;;13.80;6.57;;;;;;;;;;4950866;28;20057;-78
2023/04/07 12:48:11;;;;;;;11.90;6.57;;;;;;;;;;4950157;28;20059;-79
2023/04/07 12:50:38;;;;;;;13.45;6.78;;;;;;;;;;4949760;28;20058;-80
2023/04/07 12:53:05;;;;;;;13.23;7.32;;;;;;;;;;4951169;28;20392;-79
2023/04/07 12:55:34;;;;;;;13.88;6.88;;;;;;;;;;4950118;28;20039;-80
2023/04/07 12:58:02;;;;;;;11.43;6.65;;;;;;;;;;4952287;28;20078;-79
2023/04/07 13:00:28;;;;;;;11.65;6.82;;;;;;;;;;4951403;28;20055;-78
2023/04/07 13:02:55;;;;;;;12.57;7.03;;;;;;;;;;4960130;28;20047;-78
2023/04/07 13:05:22;;;;;;;13.27;7.00;;;;;;;;;;4952180;28;20126;-81
2023/04/07 13:07:48;;;;;;;13.90;7.03;;;;;;;;;;4950112;28;20131;-78
2023/04/07 13:10:15;;;;;;;16.33;7.35;;;;;;;;;;4949995;28;20058;-79
2023/04/07 13:12:42;;;;;;;10.25;6.40;;;;;;;;;;4949351;28;20043;-78
2023/04/07 13:15:08;;;;;;;12.57;6.88;;;;;;;;;;4946069;28;20071;-80
2023/04/07 13:17:35;;;;;;;15.85;6.88;;;;;;;;;;4950424;28;20047;-79
2023/04/07 13:20:03;;;;;;;13.35;7.15;;;;;;;;;;4947888;28;20060;-77
2023/04/07 13:22:30;;;;;;;15.95;6.93;;;;;;;;;;4948860;28;20067;-79
2023/04/07 13:24:57;;;;;;;11.15;6.32;;;;;;;;;;4947572;28;20051;-80
2023/04/07 13:27:26;;;;;;;14.65;7.65;;;;;;;;;;4947424;28;20099;-78
2023/04/07 13:29:53;;;;;;;11.65;6.80;;;;;;;;;;4947852;28;20414;-79
2023/04/07 13:32:20;;;;;;;10.65;6.43;;;;;;;;;;4950008;28;20047;-79
2023/04/07 13:34:46;;;;;;;13.27;6.80;;;;;;;;;;4948575;28;20574;-79
2023/04/07 13:37:13;;;;;;;17.23;6.90;;;;;;;;;;4952014;28;20098;-78
2023/04/07 13:39:40;;;;;;;11.68;6.85;;;;;;;;;;4952951;28;20062;-80
2023/04/07 13:42:08;;;;;;;11.50;6.80;;;;;;;;;;4950003;28;20066;-79
2023/04/07 13:44:38;;;;;;;12.10;6.40;;;;;;;;;;4950708;28;20050;-78
2023/04/07 13:47:05;;;;;;;18.67;7.30;;;;;;;;;;4950897;28;20102;-80
2023/04/07 13:49:32;;;;;;;16.58;8.68;;;;;;;;;;4949451;28;20069;-79
2023/04/07 13:51:58;;;;;;;10.93;6.68;;;;;;;;;;4952984;28;20066;-79
2023/04/07 13:54:25;;;;;;;11.63;6.95;;;;;;;;;;4952832;28;20545;-79
2023/04/07 13:56:51;;;;;;;13.02;7.03;;;;;;;;;;4952058;28;20408;-79
2023/04/07 13:59:18;;;;;;;15.13;6.55;;;;;;;;;;4949631;28;20137;-79
2023/04/07 14:01:45;;;;;;;10.63;6.32;;;;;;;;;;4949539;28;20588;-78
2023/04/07 14:04:12;;;;;;;10.45;6.63;;;;;;;;;;4948098;28;20074;-79
2023/04/07 14:06:40;;;;;;;10.57;6.70;;;;;;;;;;4947212;28;20043;-79
2023/04/07 14:09:07;;;;;;;13.57;7.00;;;;;;;;;;4947453;28;20050;-80
2023/04/07 14:11:33;;;;;;;10.93;6.70;;;;;;;;;;4947833;28;20047;-79
2023/04/07 14:14:00;;;;;;;12.18;6.75;;;;;;;;;;4948183;28;20063;-80
2023/04/07 14:16:27;;;;;;;12.30;6.53;;;;;;;;;;4937126;28;20053;-79
2023/04/07 14:18:54;;;;;;;10.75;6.82;;;;;;;;;;4947293;28;20065;-79
2023/04/07 14:21:21;;;;;;;13.75;7.63;;;;;;;;;;4948301;28;20074;-79
2023/04/07 14:23:48;;;;;;;12.38;7.13;;;;;;;;;;4946955;28;20059;-78
2023/04/07 14:26:15;;;;;;;12.15;6.90;;;;;;;;;;4945619;28;20063;-79
2023/04/07 14:28:41;;;;;;;11.05;6.60;;;;;;;;;;4947375;28;20051;-81
2023/04/07 14:31:12;;;;;;;12.27;6.60;;;;;;;;;;4948990;28;20049;-81
2023/04/07 14:33:39;;;;;;;12.75;6.28;;;;;;;;;;4948162;28;20043;-81